sensor_id;sensor_type;location;lat;lon;timestamp;P1;durP1;ratioP1;P2;durP2;ratioP2
23995;SDS011;12207;50.076;8.848;2022-07-22T00:01:25;141.23;;;8.07;;
23995;SDS011;12207;50.076;8.848;2022-07-22T00:03:52;130.05;;;7.05;;
23995;SDS011;12207;50.076;8.848;2022-07-22T00:06:19;132.38;;;7.32;;
23995;SDS011;12207;50.076;8.848;2022-07-22T00:08:46;157.35;;;8.82;;
23995;SDS011;12207;50.076;8.848;2022-07-22T00:11:12;174.80;;;9.85;;
23995;SDS011;12207;50.076;8.848;2022-07-22T00:13:39;135.90;;;8.80;;
23995;SDS011;12207;50.076;8.848;2022-07-22T00:16:06;147.80;;;8.25;;
23995;SDS011;12207;50.076;8.848;2022-07-22T00:18:33;138.85;;;7.80;;
23995;SDS011;12207;50.076;8.848;2022-07-22T00:20:59;140.65;;;7.90;;
23995;SDS011;12207;50.076;8.848;2022-07-22T00:23:26;136.52;;;7.88;;
23995;SDS011;12207;50.076;8.848;2022-07-22T00:25:53;138.23;;;7.68;;
23995;SDS011;12207;50.076;8.848;2022-07-22T00:28:20;130.02;;;7.05;;
23995;SDS011;12207;50.076;8.848;2022-07-22T00:30:47;127.13;;;6.93;;
23995;SDS011;12207;50.076;8.848;2022-07-22T00:33:13;166.30;;;9.02;;
23995;SDS011;12207;50.076;8.848;2022-07-22T00:35:40;134.15;;;7.25;;
23995;SDS011;12207;50.076;8.848;2022-07-22T00:38:07;158.15;;;8.43;;
23995;SDS011;12207;50.076;8.848;2022-07-22T00:40:34;192.25;;;10.45;;
23995;SDS011;12207;50.076;8.848;2022-07-22T00:43:01;136.98;;;7.53;;
23995;SDS011;12207;50.076;8.848;2022-07-22T00:45:27;165.13;;;8.70;;
23995;SDS011;12207;50.076;8.848;2022-07-22T00:47:54;137.40;;;7.22;;
23995;SDS011;12207;50.076;8.848;2022-07-22T00:50:21;152.20;;;8.05;;
23995;SDS011;12207;50.076;8.848;2022-07-22T00:52:49;153.60;;;8.05;;
23995;SDS011;12207;50.076;8.848;2022-07-22T00:55:16;180.45;;;9.70;;
23995;SDS011;12207;50.076;8.848;2022-07-22T00:57:42;142.82;;;7.72;;
23995;SDS011;12207;50.076;8.848;2022-07-22T01:00:11;149.82;;;7.80;;
23995;SDS011;12207;50.076;8.848;2022-07-22T01:02:42;121.72;;;6.68;;
23995;SDS011;12207;50.076;8.848;2022-07-22T01:05:09;107.50;;;6.15;;
23995;SDS011;12207;50.076;8.848;2022-07-22T01:07:37;127.57;;;6.97;;
23995;SDS011;12207;50.076;8.848;2022-07-22T01:10:04;115.43;;;6.35;;
23995;SDS011;12207;50.076;8.848;2022-07-22T01:12:32;149.50;;;8.20;;
23995;SDS011;12207;50.076;8.848;2022-07-22T01:14:59;74.30;;;4.03;;
23995;SDS011;12207;50.076;8.848;2022-07-22T01:17:25;112.10;;;6.28;;
23995;SDS011;12207;50.076;8.848;2022-07-22T01:19:52;109.30;;;6.13;;
23995;SDS011;12207;50.076;8.848;2022-07-22T01:22:19;105.90;;;5.85;;
23995;SDS011;12207;50.076;8.848;2022-07-22T01:24:46;116.35;;;6.82;;
23995;SDS011;12207;50.076;8.848;2022-07-22T01:27:13;125.50;;;6.63;;
23995;SDS011;12207;50.076;8.848;2022-07-22T01:29:40;143.48;;;7.57;;
23995;SDS011;12207;50.076;8.848;2022-07-22T01:32:06;152.45;;;8.13;;
23995;SDS011;12207;50.076;8.848;2022-07-22T01:34:33;107.30;;;5.60;;
23995;SDS011;12207;50.076;8.848;2022-07-22T01:37:00;150.82;;;7.78;;
23995;SDS011;12207;50.076;8.848;2022-07-22T01:39:26;182.23;;;9.55;;
23995;SDS011;12207;50.076;8.848;2022-07-22T01:41:53;115.25;;;5.93;;
23995;SDS011;12207;50.076;8.848;2022-07-22T01:44:20;148.88;;;7.70;;
23995;SDS011;12207;50.076;8.848;2022-07-22T01:46:46;147.80;;;7.75;;
23995;SDS011;12207;50.076;8.848;2022-07-22T01:49:15;149.30;;;7.75;;
23995;SDS011;12207;50.076;8.848;2022-07-22T01:51:42;149.18;;;7.75;;
23995;SDS011;12207;50.076;8.848;2022-07-22T01:54:08;147.32;;;7.78;;
23995;SDS011;12207;50.076;8.848;2022-07-22T01:56:35;144.15;;;7.85;;
23995;SDS011;12207;50.076;8.848;2022-07-22T01:59:02;147.55;;;7.78;;
23995;SDS011;12207;50.076;8.848;2022-07-22T02:01:29;142.60;;;7.63;;
23995;SDS011;12207;50.076;8.848;2022-07-22T02:03:56;148.00;;;7.72;;
23995;SDS011;12207;50.076;8.848;2022-07-22T02:06:22;119.05;;;6.35;;
23995;SDS011;12207;50.076;8.848;2022-07-22T02:08:49;144.40;;;7.55;;
23995;SDS011;12207;50.076;8.848;2022-07-22T02:11:16;134.35;;;7.15;;
23995;SDS011;12207;50.076;8.848;2022-07-22T02:13:43;154.15;;;8.13;;
23995;SDS011;12207;50.076;8.848;2022-07-22T02:16:10;128.32;;;6.75;;
23995;SDS011;12207;50.076;8.848;2022-07-22T02:18:36;123.72;;;6.57;;
23995;SDS011;12207;50.076;8.848;2022-07-22T02:21:03;105.15;;;5.72;;
23995;SDS011;12207;50.076;8.848;2022-07-22T02:23:30;121.20;;;6.38;;
23995;SDS011;12207;50.076;8.848;2022-07-22T02:25:57;150.98;;;7.95;;
23995;SDS011;12207;50.076;8.848;2022-07-22T02:28:23;135.48;;;6.90;;
23995;SDS011;12207;50.076;8.848;2022-07-22T02:30:50;84.00;;;4.13;;
23995;SDS011;12207;50.076;8.848;2022-07-22T02:33:17;141.77;;;7.53;;
23995;SDS011;12207;50.076;8.848;2022-07-22T02:35:43;150.90;;;7.85;;
23995;SDS011;12207;50.076;8.848;2022-07-22T02:38:10;108.95;;;6.35;;
23995;SDS011;12207;50.076;8.848;2022-07-22T02:40:37;144.93;;;7.60;;
23995;SDS011;12207;50.076;8.848;2022-07-22T02:43:04;154.30;;;8.02;;
23995;SDS011;12207;50.076;8.848;2022-07-22T02:45:32;117.32;;;6.47;;
23995;SDS011;12207;50.076;8.848;2022-07-22T02:47:59;136.00;;;7.22;;
23995;SDS011;12207;50.076;8.848;2022-07-22T02:50:25;150.45;;;8.05;;
23995;SDS011;12207;50.076;8.848;2022-07-22T02:52:52;141.45;;;7.38;;
23995;SDS011;12207;50.076;8.848;2022-07-22T02:55:19;147.68;;;8.15;;
23995;SDS011;12207;50.076;8.848;2022-07-22T02:57:46;155.68;;;8.25;;
23995;SDS011;12207;50.076;8.848;2022-07-22T03:00:12;118.53;;;6.05;;
23995;SDS011;12207;50.076;8.848;2022-07-22T03:02:40;146.27;;;7.60;;
23995;SDS011;12207;50.076;8.848;2022-07-22T03:05:08;158.05;;;8.38;;
23995;SDS011;12207;50.076;8.848;2022-07-22T03:07:35;135.70;;;6.97;;
23995;SDS011;12207;50.076;8.848;2022-07-22T03:10:02;174.25;;;9.35;;
23995;SDS011;12207;50.076;8.848;2022-07-22T03:12:29;133.23;;;7.00;;
23995;SDS011;12207;50.076;8.848;2022-07-22T03:14:56;141.93;;;7.38;;
23995;SDS011;12207;50.076;8.848;2022-07-22T03:17:22;126.38;;;6.57;;
23995;SDS011;12207;50.076;8.848;2022-07-22T03:19:49;125.50;;;6.50;;
23995;SDS011;12207;50.076;8.848;2022-07-22T03:22:16;123.68;;;6.15;;
23995;SDS011;12207;50.076;8.848;2022-07-22T03:24:43;139.52;;;7.03;;
23995;SDS011;12207;50.076;8.848;2022-07-22T03:27:09;167.95;;;8.63;;
23995;SDS011;12207;50.076;8.848;2022-07-22T03:29:36;129.43;;;6.57;;
23995;SDS011;12207;50.076;8.848;2022-07-22T03:32:03;171.52;;;8.90;;
23995;SDS011;12207;50.076;8.848;2022-07-22T03:34:30;154.95;;;8.02;;
23995;SDS011;12207;50.076;8.848;2022-07-22T03:36:56;148.60;;;7.72;;
23995;SDS011;12207;50.076;8.848;2022-07-22T03:39:23;124.53;;;6.45;;
23995;SDS011;12207;50.076;8.848;2022-07-22T03:41:50;159.13;;;8.07;;
23995;SDS011;12207;50.076;8.848;2022-07-22T03:44:16;128.68;;;6.38;;
23995;SDS011;12207;50.076;8.848;2022-07-22T03:46:43;114.65;;;5.78;;
23995;SDS011;12207;50.076;8.848;2022-07-22T03:49:10;146.52;;;7.40;;
23995;SDS011;12207;50.076;8.848;2022-07-22T03:51:36;149.88;;;7.60;;
23995;SDS011;12207;50.076;8.848;2022-07-22T03:54:03;154.30;;;7.97;;
23995;SDS011;12207;50.076;8.848;2022-07-22T03:56:31;120.55;;;6.18;;
23995;SDS011;12207;50.076;8.848;2022-07-22T03:58:57;190.68;;;10.02;;
23995;SDS011;12207;50.076;8.848;2022-07-22T04:01:24;143.35;;;7.38;;
23995;SDS011;12207;50.076;8.848;2022-07-22T04:03:51;235.27;;;12.02;;
23995;SDS011;12207;50.076;8.848;2022-07-22T04:06:18;286.77;;;14.43;;
23995;SDS011;12207;50.076;8.848;2022-07-22T04:08:45;253.60;;;13.05;;
23995;SDS011;12207;50.076;8.848;2022-07-22T04:11:11;260.35;;;13.25;;
23995;SDS011;12207;50.076;8.848;2022-07-22T04:13:38;283.85;;;14.38;;
23995;SDS011;12207;50.076;8.848;2022-07-22T04:16:05;281.90;;;14.23;;
23995;SDS011;12207;50.076;8.848;2022-07-22T04:18:32;278.20;;;14.23;;
23995;SDS011;12207;50.076;8.848;2022-07-22T04:20:59;275.85;;;14.23;;
23995;SDS011;12207;50.076;8.848;2022-07-22T04:23:26;224.50;;;11.75;;
23995;SDS011;12207;50.076;8.848;2022-07-22T04:25:53;249.07;;;12.57;;
23995;SDS011;12207;50.076;8.848;2022-07-22T04:28:19;243.48;;;12.45;;
23995;SDS011;12207;50.076;8.848;2022-07-22T04:30:47;208.43;;;10.90;;
23995;SDS011;12207;50.076;8.848;2022-07-22T04:33:14;233.00;;;12.88;;
23995;SDS011;12207;50.076;8.848;2022-07-22T04:35:41;281.25;;;16.25;;
23995;SDS011;12207;50.076;8.848;2022-07-22T04:38:09;295.00;;;18.00;;
23995;SDS011;12207;50.076;8.848;2022-07-22T04:40:36;334.35;;;21.73;;
23995;SDS011;12207;50.076;8.848;2022-07-22T04:43:02;367.25;;;25.65;;
23995;SDS011;12207;50.076;8.848;2022-07-22T04:45:29;246.50;;;22.33;;
23995;SDS011;12207;50.076;8.848;2022-07-22T04:47:56;282.38;;;27.83;;
23995;SDS011;12207;50.076;8.848;2022-07-22T04:50:23;277.13;;;32.88;;
23995;SDS011;12207;50.076;8.848;2022-07-22T04:55:51;264.90;;;40.17;;
23995;SDS011;12207;50.076;8.848;2022-07-22T04:58:18;250.70;;;39.08;;
23995;SDS011;12207;50.076;8.848;2022-07-22T05:00:46;266.35;;;47.78;;
23995;SDS011;12207;50.076;8.848;2022-07-22T05:03:13;292.48;;;55.50;;
23995;SDS011;12207;50.076;8.848;2022-07-22T05:05:40;318.17;;;74.32;;
23995;SDS011;12207;50.076;8.848;2022-07-22T05:08:07;336.95;;;85.00;;
23995;SDS011;12207;50.076;8.848;2022-07-22T05:10:33;384.00;;;96.63;;
23995;SDS011;12207;50.076;8.848;2022-07-22T05:13:00;305.73;;;94.88;;
23995;SDS011;12207;50.076;8.848;2022-07-22T05:15:27;329.20;;;104.07;;
23995;SDS011;12207;50.076;8.848;2022-07-22T05:17:54;363.63;;;115.57;;
23995;SDS011;12207;50.076;8.848;2022-07-22T05:20:21;336.25;;;116.85;;
23995;SDS011;12207;50.076;8.848;2022-07-22T05:22:48;331.35;;;121.90;;
23995;SDS011;12207;50.076;8.848;2022-07-22T05:25:14;371.85;;;131.57;;
23995;SDS011;12207;50.076;8.848;2022-07-22T05:27:50;363.25;;;130.43;;
23995;SDS011;12207;50.076;8.848;2022-07-22T05:30:18;326.50;;;128.25;;
23995;SDS011;12207;50.076;8.848;2022-07-22T05:32:45;356.02;;;136.38;;
23995;SDS011;12207;50.076;8.848;2022-07-22T05:35:12;374.20;;;134.93;;
23995;SDS011;12207;50.076;8.848;2022-07-22T05:37:39;393.90;;;150.20;;
23995;SDS011;12207;50.076;8.848;2022-07-22T05:40:06;429.23;;;145.18;;
23995;SDS011;12207;50.076;8.848;2022-07-22T05:42:33;410.10;;;147.32;;
23995;SDS011;12207;50.076;8.848;2022-07-22T05:45:00;395.98;;;138.68;;
23995;SDS011;12207;50.076;8.848;2022-07-22T05:47:26;380.02;;;137.73;;
23995;SDS011;12207;50.076;8.848;2022-07-22T05:49:53;350.48;;;145.75;;
23995;SDS011;12207;50.076;8.848;2022-07-22T05:52:20;486.42;;;152.98;;
23995;SDS011;12207;50.076;8.848;2022-07-22T05:54:47;366.65;;;150.85;;
23995;SDS011;12207;50.076;8.848;2022-07-22T05:57:14;376.52;;;148.93;;
23995;SDS011;12207;50.076;8.848;2022-07-22T05:59:41;420.67;;;151.48;;
23995;SDS011;12207;50.076;8.848;2022-07-22T06:02:07;474.27;;;155.40;;
23995;SDS011;12207;50.076;8.848;2022-07-22T06:04:34;381.83;;;143.75;;
23995;SDS011;12207;50.076;8.848;2022-07-22T06:07:01;451.75;;;155.68;;
23995;SDS011;12207;50.076;8.848;2022-07-22T06:09:27;381.38;;;145.75;;
23995;SDS011;12207;50.076;8.848;2022-07-22T06:11:54;319.88;;;144.52;;
23995;SDS011;12207;50.076;8.848;2022-07-22T06:14:21;389.17;;;153.30;;
23995;SDS011;12207;50.076;8.848;2022-07-22T06:16:48;365.40;;;170.35;;
23995;SDS011;12207;50.076;8.848;2022-07-22T06:19:14;390.70;;;169.48;;
23995;SDS011;12207;50.076;8.848;2022-07-22T06:21:41;402.15;;;172.10;;
23995;SDS011;12207;50.076;8.848;2022-07-22T06:24:08;411.42;;;153.82;;
23995;SDS011;12207;50.076;8.848;2022-07-22T06:26:34;449.65;;;166.80;;
23995;SDS011;12207;50.076;8.848;2022-07-22T06:29:01;383.08;;;161.38;;
23995;SDS011;12207;50.076;8.848;2022-07-22T06:31:28;367.05;;;141.98;;
23995;SDS011;12207;50.076;8.848;2022-07-22T06:33:55;301.25;;;129.57;;
23995;SDS011;12207;50.076;8.848;2022-07-22T06:36:22;322.50;;;130.50;;
23995;SDS011;12207;50.076;8.848;2022-07-22T06:38:49;357.15;;;138.50;;
23995;SDS011;12207;50.076;8.848;2022-07-22T06:41:15;278.60;;;98.80;;
23995;SDS011;12207;50.076;8.848;2022-07-22T06:43:45;339.73;;;116.82;;
23995;SDS011;12207;50.076;8.848;2022-07-22T06:46:11;407.63;;;117.60;;
23995;SDS011;12207;50.076;8.848;2022-07-22T06:48:38;327.88;;;93.80;;
23995;SDS011;12207;50.076;8.848;2022-07-22T06:51:05;362.58;;;102.35;;
23995;SDS011;12207;50.076;8.848;2022-07-22T06:53:32;334.67;;;90.93;;
23995;SDS011;12207;50.076;8.848;2022-07-22T06:55:59;261.35;;;58.70;;
23995;SDS011;12207;50.076;8.848;2022-07-22T06:58:26;266.08;;;47.08;;
23995;SDS011;12207;50.076;8.848;2022-07-22T07:00:53;244.93;;;38.92;;
23995;SDS011;12207;50.076;8.848;2022-07-22T07:03:19;292.00;;;41.08;;
23995;SDS011;12207;50.076;8.848;2022-07-22T07:05:48;229.50;;;32.33;;
23995;SDS011;12207;50.076;8.848;2022-07-22T07:08:15;296.42;;;35.95;;
23995;SDS011;12207;50.076;8.848;2022-07-22T07:10:41;311.50;;;37.17;;
23995;SDS011;12207;50.076;8.848;2022-07-22T07:13:08;296.63;;;35.58;;
23995;SDS011;12207;50.076;8.848;2022-07-22T07:15:35;296.90;;;38.83;;
23995;SDS011;12207;50.076;8.848;2022-07-22T07:18:03;251.25;;;34.15;;
23995;SDS011;12207;50.076;8.848;2022-07-22T07:20:30;397.30;;;49.22;;
23995;SDS011;12207;50.076;8.848;2022-07-22T07:22:59;313.50;;;48.28;;
23995;SDS011;12207;50.076;8.848;2022-07-22T07:25:27;291.23;;;72.78;;
23995;SDS011;12207;50.076;8.848;2022-07-22T07:27:53;263.00;;;67.38;;
23995;SDS011;12207;50.076;8.848;2022-07-22T07:30:20;290.42;;;69.72;;
23995;SDS011;12207;50.076;8.848;2022-07-22T07:32:47;248.95;;;45.25;;
23995;SDS011;12207;50.076;8.848;2022-07-22T07:35:14;283.08;;;53.25;;
23995;SDS011;12207;50.076;8.848;2022-07-22T07:37:41;349.95;;;66.60;;
23995;SDS011;12207;50.076;8.848;2022-07-22T07:40:08;352.00;;;73.75;;
23995;SDS011;12207;50.076;8.848;2022-07-22T07:42:35;365.92;;;91.85;;
23995;SDS011;12207;50.076;8.848;2022-07-22T07:45:02;376.40;;;93.40;;
23995;SDS011;12207;50.076;8.848;2022-07-22T07:47:29;305.67;;;79.10;;
23995;SDS011;12207;50.076;8.848;2022-07-22T07:49:56;306.58;;;92.35;;
23995;SDS011;12207;50.076;8.848;2022-07-22T07:52:25;455.52;;;108.32;;
23995;SDS011;12207;50.076;8.848;2022-07-22T07:54:52;392.45;;;109.70;;
23995;SDS011;12207;50.076;8.848;2022-07-22T07:57:21;320.20;;;101.95;;
23995;SDS011;12207;50.076;8.848;2022-07-22T07:59:48;355.88;;;98.28;;
23995;SDS011;12207;50.076;8.848;2022-07-22T08:02:15;438.50;;;115.72;;
23995;SDS011;12207;50.076;8.848;2022-07-22T08:04:41;336.42;;;94.30;;
23995;SDS011;12207;50.076;8.848;2022-07-22T08:07:08;412.73;;;115.60;;
23995;SDS011;12207;50.076;8.848;2022-07-22T08:09:35;391.88;;;117.65;;
23995;SDS011;12207;50.076;8.848;2022-07-22T08:12:03;396.95;;;105.97;;
23995;SDS011;12207;50.076;8.848;2022-07-22T08:14:30;352.05;;;111.07;;
23995;SDS011;12207;50.076;8.848;2022-07-22T08:16:57;358.15;;;118.03;;
23995;SDS011;12207;50.076;8.848;2022-07-22T08:19:24;336.83;;;119.03;;
23995;SDS011;12207;50.076;8.848;2022-07-22T08:21:51;390.15;;;134.93;;
23995;SDS011;12207;50.076;8.848;2022-07-22T08:24:18;368.58;;;133.15;;
23995;SDS011;12207;50.076;8.848;2022-07-22T08:26:45;371.60;;;126.82;;
23995;SDS011;12207;50.076;8.848;2022-07-22T08:29:11;408.30;;;132.18;;
23995;SDS011;12207;50.076;8.848;2022-07-22T08:31:38;409.23;;;135.30;;
23995;SDS011;12207;50.076;8.848;2022-07-22T08:34:05;424.45;;;129.27;;
23995;SDS011;12207;50.076;8.848;2022-07-22T08:36:32;427.67;;;125.25;;
23995;SDS011;12207;50.076;8.848;2022-07-22T08:38:59;384.98;;;132.02;;
23995;SDS011;12207;50.076;8.848;2022-07-22T08:41:26;351.55;;;116.35;;
23995;SDS011;12207;50.076;8.848;2022-07-22T08:43:52;361.95;;;115.78;;
23995;SDS011;12207;50.076;8.848;2022-07-22T08:46:19;330.48;;;114.70;;
23995;SDS011;12207;50.076;8.848;2022-07-22T08:48:46;348.58;;;114.15;;
23995;SDS011;12207;50.076;8.848;2022-07-22T08:51:13;374.17;;;118.55;;
23995;SDS011;12207;50.076;8.848;2022-07-22T08:53:39;399.00;;;118.10;;
23995;SDS011;12207;50.076;8.848;2022-07-22T08:56:06;386.80;;;117.05;;
23995;SDS011;12207;50.076;8.848;2022-07-22T08:58:33;394.98;;;110.15;;
23995;SDS011;12207;50.076;8.848;2022-07-22T09:01:07;450.75;;;115.75;;
23995;SDS011;12207;50.076;8.848;2022-07-22T09:03:43;387.23;;;110.78;;
23995;SDS011;12207;50.076;8.848;2022-07-22T09:06:18;368.60;;;109.18;;
23995;SDS011;12207;50.076;8.848;2022-07-22T09:08:56;307.20;;;103.22;;
23995;SDS011;12207;50.076;8.848;2022-07-22T09:11:29;376.50;;;105.53;;
23995;SDS011;12207;50.076;8.848;2022-07-22T09:13:58;337.80;;;106.18;;
23995;SDS011;12207;50.076;8.848;2022-07-22T09:16:41;346.58;;;107.57;;
23995;SDS011;12207;50.076;8.848;2022-07-22T09:19:12;344.95;;;110.90;;
23995;SDS011;12207;50.076;8.848;2022-07-22T09:21:41;355.77;;;110.97;;
23995;SDS011;12207;50.076;8.848;2022-07-22T09:24:27;422.50;;;117.13;;
23995;SDS011;12207;50.076;8.848;2022-07-22T09:26:55;318.75;;;107.75;;
23995;SDS011;12207;50.076;8.848;2022-07-22T09:29:22;347.30;;;110.32;;
23995;SDS011;12207;50.076;8.848;2022-07-22T09:31:50;316.65;;;104.32;;
23995;SDS011;12207;50.076;8.848;2022-07-22T09:34:28;401.52;;;115.63;;
23995;SDS011;12207;50.076;8.848;2022-07-22T09:36:57;307.58;;;112.38;;
23995;SDS011;12207;50.076;8.848;2022-07-22T09:39:31;333.40;;;117.80;;
23995;SDS011;12207;50.076;8.848;2022-07-22T09:41:59;361.05;;;119.97;;
23995;SDS011;12207;50.076;8.848;2022-07-22T09:44:31;332.75;;;116.90;;
23995;SDS011;12207;50.076;8.848;2022-07-22T09:46:57;316.42;;;114.93;;
23995;SDS011;12207;50.076;8.848;2022-07-22T09:49:31;372.25;;;115.15;;
23995;SDS011;12207;50.076;8.848;2022-07-22T09:51:57;341.00;;;114.47;;
23995;SDS011;12207;50.076;8.848;2022-07-22T09:54:27;358.60;;;112.65;;
23995;SDS011;12207;50.076;8.848;2022-07-22T09:56:55;283.85;;;106.40;;
23995;SDS011;12207;50.076;8.848;2022-07-22T09:59:22;310.85;;;105.80;;
23995;SDS011;12207;50.076;8.848;2022-07-22T10:01:51;326.00;;;102.15;;
23995;SDS011;12207;50.076;8.848;2022-07-22T10:04:20;352.67;;;107.03;;
23995;SDS011;12207;50.076;8.848;2022-07-22T10:06:49;317.98;;;101.57;;
23995;SDS011;12207;50.076;8.848;2022-07-22T10:09:19;357.13;;;111.47;;
23995;SDS011;12207;50.076;8.848;2022-07-22T10:11:48;299.35;;;105.32;;
23995;SDS011;12207;50.076;8.848;2022-07-22T10:14:16;320.27;;;106.78;;
23995;SDS011;12207;50.076;8.848;2022-07-22T10:16:44;386.75;;;117.90;;
23995;SDS011;12207;50.076;8.848;2022-07-22T10:19:11;329.90;;;116.32;;
23995;SDS011;12207;50.076;8.848;2022-07-22T10:21:39;383.38;;;116.75;;
23995;SDS011;12207;50.076;8.848;2022-07-22T10:24:10;380.35;;;114.45;;
23995;SDS011;12207;50.076;8.848;2022-07-22T10:34:43;370.30;;;108.18;;
23995;SDS011;12207;50.076;8.848;2022-07-22T10:40:13;372.73;;;115.50;;
23995;SDS011;12207;50.076;8.848;2022-07-22T10:48:09;359.63;;;104.78;;
23995;SDS011;12207;50.076;8.848;2022-07-22T10:50:40;374.15;;;112.32;;
23995;SDS011;12207;50.076;8.848;2022-07-22T10:53:13;357.80;;;118.28;;
23995;SDS011;12207;50.076;8.848;2022-07-22T10:56:05;361.63;;;116.88;;
23995;SDS011;12207;50.076;8.848;2022-07-22T11:01:11;392.60;;;128.20;;
23995;SDS011;12207;50.076;8.848;2022-07-22T11:03:42;376.05;;;128.55;;
23995;SDS011;12207;50.076;8.848;2022-07-22T11:06:21;387.75;;;132.15;;
23995;SDS011;12207;50.076;8.848;2022-07-22T11:09:08;364.65;;;127.50;;
23995;SDS011;12207;50.076;8.848;2022-07-22T11:14:13;428.45;;;138.32;;
23995;SDS011;12207;50.076;8.848;2022-07-22T11:16:47;408.77;;;138.30;;
23995;SDS011;12207;50.076;8.848;2022-07-22T11:19:18;364.63;;;141.18;;
23995;SDS011;12207;50.076;8.848;2022-07-22T11:21:49;333.48;;;129.48;;
23995;SDS011;12207;50.076;8.848;2022-07-22T11:24:17;332.88;;;135.88;;
23995;SDS011;12207;50.076;8.848;2022-07-22T11:26:50;354.48;;;130.05;;
23995;SDS011;12207;50.076;8.848;2022-07-22T11:29:28;326.88;;;127.95;;
23995;SDS011;12207;50.076;8.848;2022-07-22T11:32:05;410.75;;;134.23;;
23995;SDS011;12207;50.076;8.848;2022-07-22T11:34:34;444.77;;;133.75;;
23995;SDS011;12207;50.076;8.848;2022-07-22T11:37:02;423.00;;;141.60;;
23995;SDS011;12207;50.076;8.848;2022-07-22T11:39:30;375.33;;;134.55;;
23995;SDS011;12207;50.076;8.848;2022-07-22T11:41:58;379.48;;;129.27;;
23995;SDS011;12207;50.076;8.848;2022-07-22T11:44:32;351.40;;;130.82;;
23995;SDS011;12207;50.076;8.848;2022-07-22T11:47:00;437.77;;;139.27;;
23995;SDS011;12207;50.076;8.848;2022-07-22T11:49:28;370.40;;;134.70;;
23995;SDS011;12207;50.076;8.848;2022-07-22T11:51:58;306.83;;;126.07;;
23995;SDS011;12207;50.076;8.848;2022-07-22T11:54:25;346.95;;;135.35;;
23995;SDS011;12207;50.076;8.848;2022-07-22T11:56:52;349.23;;;129.32;;
23995;SDS011;12207;50.076;8.848;2022-07-22T11:59:19;356.60;;;134.10;;
23995;SDS011;12207;50.076;8.848;2022-07-22T12:01:47;332.33;;;130.10;;
23995;SDS011;12207;50.076;8.848;2022-07-22T12:04:16;339.15;;;128.82;;
23995;SDS011;12207;50.076;8.848;2022-07-22T12:06:51;364.20;;;140.43;;
23995;SDS011;12207;50.076;8.848;2022-07-22T12:09:24;380.67;;;132.05;;
23995;SDS011;12207;50.076;8.848;2022-07-22T12:11:55;318.77;;;132.68;;
23995;SDS011;12207;50.076;8.848;2022-07-22T12:14:24;348.73;;;138.57;;
23995;SDS011;12207;50.076;8.848;2022-07-22T12:19:22;334.55;;;136.35;;
23995;SDS011;12207;50.076;8.848;2022-07-22T12:21:51;328.90;;;131.75;;
23995;SDS011;12207;50.076;8.848;2022-07-22T12:24:28;342.17;;;132.18;;
23995;SDS011;12207;50.076;8.848;2022-07-22T12:27:01;373.85;;;131.77;;
23995;SDS011;12207;50.076;8.848;2022-07-22T12:32:03;407.48;;;147.40;;
23995;SDS011;12207;50.076;8.848;2022-07-22T12:34:41;435.38;;;148.10;;
23995;SDS011;12207;50.076;8.848;2022-07-22T12:42:19;491.80;;;160.48;;
23995;SDS011;12207;50.076;8.848;2022-07-22T12:44:50;347.02;;;150.82;;
23995;SDS011;12207;50.076;8.848;2022-07-22T12:47:37;373.23;;;149.27;;
23995;SDS011;12207;50.076;8.848;2022-07-22T12:52:52;355.05;;;147.45;;
23995;SDS011;12207;50.076;8.848;2022-07-22T12:55:32;387.10;;;147.23;;
23995;SDS011;12207;50.076;8.848;2022-07-22T12:58:10;356.08;;;143.18;;
23995;SDS011;12207;50.076;8.848;2022-07-22T13:00:38;409.30;;;156.75;;
23995;SDS011;12207;50.076;8.848;2022-07-22T13:03:07;423.80;;;147.05;;
23995;SDS011;12207;50.076;8.848;2022-07-22T13:05:34;411.02;;;144.52;;
23995;SDS011;12207;50.076;8.848;2022-07-22T13:08:02;387.70;;;142.38;;
23995;SDS011;12207;50.076;8.848;2022-07-22T13:10:29;443.05;;;153.38;;
23995;SDS011;12207;50.076;8.848;2022-07-22T13:12:56;361.95;;;144.57;;
23995;SDS011;12207;50.076;8.848;2022-07-22T13:15:22;365.85;;;144.57;;
23995;SDS011;12207;50.076;8.848;2022-07-22T13:17:49;328.52;;;140.25;;
23995;SDS011;12207;50.076;8.848;2022-07-22T13:20:17;380.38;;;149.45;;
23995;SDS011;12207;50.076;8.848;2022-07-22T13:22:44;430.27;;;152.05;;
23995;SDS011;12207;50.076;8.848;2022-07-22T13:25:11;405.55;;;152.90;;
23995;SDS011;12207;50.076;8.848;2022-07-22T13:27:39;420.17;;;151.30;;
23995;SDS011;12207;50.076;8.848;2022-07-22T13:30:06;389.55;;;143.02;;
23995;SDS011;12207;50.076;8.848;2022-07-22T13:32:33;528.97;;;152.10;;
23995;SDS011;12207;50.076;8.848;2022-07-22T13:35:00;434.27;;;149.55;;
23995;SDS011;12207;50.076;8.848;2022-07-22T13:37:27;364.17;;;149.07;;
23995;SDS011;12207;50.076;8.848;2022-07-22T13:39:54;361.23;;;145.45;;
23995;SDS011;12207;50.076;8.848;2022-07-22T13:42:20;487.27;;;158.95;;
23995;SDS011;12207;50.076;8.848;2022-07-22T13:44:48;356.42;;;145.75;;
23995;SDS011;12207;50.076;8.848;2022-07-22T13:47:16;378.88;;;151.98;;
23995;SDS011;12207;50.076;8.848;2022-07-22T13:49:44;401.90;;;153.38;;
23995;SDS011;12207;50.076;8.848;2022-07-22T13:52:12;453.08;;;166.88;;
23995;SDS011;12207;50.076;8.848;2022-07-22T13:54:39;474.42;;;178.82;;
23995;SDS011;12207;50.076;8.848;2022-07-22T13:57:06;431.77;;;176.38;;
23995;SDS011;12207;50.076;8.848;2022-07-22T13:59:33;433.75;;;169.43;;
23995;SDS011;12207;50.076;8.848;2022-07-22T14:02:00;463.98;;;176.50;;
23995;SDS011;12207;50.076;8.848;2022-07-22T14:04:27;389.05;;;160.00;;
23995;SDS011;12207;50.076;8.848;2022-07-22T14:06:54;370.67;;;162.10;;
23995;SDS011;12207;50.076;8.848;2022-07-22T14:09:21;353.20;;;155.02;;
23995;SDS011;12207;50.076;8.848;2022-07-22T14:11:48;344.75;;;151.50;;
23995;SDS011;12207;50.076;8.848;2022-07-22T14:14:15;399.38;;;155.18;;
23995;SDS011;12207;50.076;8.848;2022-07-22T14:16:42;400.33;;;156.05;;
23995;SDS011;12207;50.076;8.848;2022-07-22T14:19:13;417.35;;;159.07;;
23995;SDS011;12207;50.076;8.848;2022-07-22T14:21:42;371.27;;;152.18;;
23995;SDS011;12207;50.076;8.848;2022-07-22T14:24:10;440.05;;;162.30;;
23995;SDS011;12207;50.076;8.848;2022-07-22T14:26:37;444.77;;;161.35;;
23995;SDS011;12207;50.076;8.848;2022-07-22T14:29:05;420.60;;;154.43;;
23995;SDS011;12207;50.076;8.848;2022-07-22T14:31:32;428.98;;;161.63;;
23995;SDS011;12207;50.076;8.848;2022-07-22T14:33:59;377.20;;;156.38;;
23995;SDS011;12207;50.076;8.848;2022-07-22T14:36:26;380.13;;;153.43;;
23995;SDS011;12207;50.076;8.848;2022-07-22T14:38:53;379.55;;;163.63;;
23995;SDS011;12207;50.076;8.848;2022-07-22T14:41:20;325.77;;;154.07;;
23995;SDS011;12207;50.076;8.848;2022-07-22T14:43:47;356.35;;;149.02;;
23995;SDS011;12207;50.076;8.848;2022-07-22T14:46:14;429.45;;;153.32;;
23995;SDS011;12207;50.076;8.848;2022-07-22T14:48:40;403.60;;;152.18;;